Time;durP1;ratioP1;P1;durP2;ratioP2;P2;SDS_P1;SDS_P2;PMS_P1;PMS_P2;Temp;Humidity;BMP_temperature;BMP_pressure;BME280_temperature;BME280_humidity;BME280_pressure;Samples;Min_cycle;Max_cycle;Signal;HPM_P1;HPM_P2
2022/09/25 00:01:23;;;;;;;10.57;5.10;;;;;;;;;;5103673;28;20419;-72
2022/09/25 00:03:49;;;;;;;11.77;4.60;;;;;;;;;;5088829;28;20495;-71
2022/09/25 00:06:17;;;;;;;10.57;4.80;;;;;;;;;;5058287;28;20421;-71
2022/09/25 00:08:44;;;;;;;9.20;4.53;;;8.70;99.90;;;;;;5075608;28;20500;-71
2022/09/25 00:11:24;;;;;;;9.90;5.00;;;;;;;;;;5077990;27;20488;-71
2022/09/25 00:13:50;;;;;;;12.82;4.85;;;;;;;;;;5097890;27;20430;-72
2022/09/25 00:16:18;;;;;;;11.47;4.67;;;;;;;;;;5111263;27;20419;-72
2022/09/25 00:21:30;;;;;;;11.15;4.75;;;;;;;;;;5099765;27;20419;-72
2022/09/25 00:24:02;;;;;;;13.10;4.65;;;8.60;99.90;;;;;;5110409;27;20412;-72
2022/09/25 00:26:29;;;;;;;8.43;4.32;;;;;;;;;;5110856;27;20505;-72
2022/09/25 00:28:55;;;;;;;14.13;4.70;;;;;;;;;;5113187;27;20948;-72
2022/09/25 00:31:23;;;;;;;13.35;4.57;;;8.50;99.90;;;;;;5110386;27;20460;-72
2022/09/25 00:33:50;;;;;;;8.32;4.70;;;8.60;99.90;;;;;;5074761;28;20437;-72
2022/09/25 00:36:16;;;;;;;10.45;4.95;;;;;;;;;;5080866;28;20420;-72
2022/09/25 00:38:45;;;;;;;9.98;4.30;;;;;;;;;;5094001;28;21222;-72
2022/09/25 00:41:11;;;;;;;11.05;4.93;;;;;;;;;;5093065;28;20907;-73
2022/09/25 00:43:45;;;;;;;12.93;4.82;;;;;;;;;;5079906;28;20501;-73
2022/09/25 00:46:19;;;;;;;9.27;4.50;;;8.60;99.90;;;;;;5103387;27;20427;-73
2022/09/25 00:48:52;;;;;;;10.93;4.60;;;;;;;;;;5112723;27;20494;-73
2022/09/25 00:51:20;;;;;;;9.07;4.75;;;;;;;;;;5096788;27;20418;-72
2022/09/25 00:53:46;;;;;;;9.90;4.53;;;;;;;;;;5088718;28;20528;-73
2022/09/25 00:56:13;;;;;;;12.18;4.70;;;8.50;99.90;;;;;;5094116;27;20921;-73
2022/09/25 00:58:40;;;;;;;8.77;4.63;;;;;;;;;;5115090;27;20399;-73
2022/09/25 01:01:06;;;;;;;10.30;4.53;;;;;;;;;;5068416;28;20418;-72
2022/09/25 01:03:33;;;;;;;12.07;4.53;;;;;;;;;;5074399;28;20394;-73
2022/09/25 01:06:00;;;;;;;8.90;4.03;;;;;;;;;;5087348;27;20424;-73
2022/09/25 01:08:27;;;;;;;11.38;4.50;;;8.60;99.90;;;;;;5097184;27;20445;-73
2022/09/25 01:10:53;;;;;;;15.43;4.90;;;;;;;;;;5109899;27;22411;-73
2022/09/25 01:13:19;;;;;;;9.32;3.90;;;;;;;;;;5081382;27;20479;-72
2022/09/25 01:15:53;;;;;;;10.15;4.30;;;;;;;;;;5107806;27;20422;-73
2022/09/25 01:18:19;;;;;;;10.82;4.32;;;;;;;;;;5092580;28;20420;-73
2022/09/25 01:21:04;;;;;;;12.15;4.60;;;;;;;;;;5086993;28;20470;-70
2022/09/25 01:23:37;;;;;;;9.20;4.45;;;;;;;;;;5105641;28;20442;-71
2022/09/25 01:26:13;;;;;;;11.70;4.83;;;;;;;;;;5094190;28;20400;-72
2022/09/25 01:28:51;;;;;;;8.98;4.20;;;;;;;;;;5100015;27;20808;-71
2022/09/25 01:31:21;;;;;;;8.65;4.18;;;;;;;;;;5089461;27;20426;-72
2022/09/25 01:33:49;;;;;;;14.13;5.07;;;;;;;;;;5094001;28;20416;-71
2022/09/25 01:36:33;;;;;;;9.90;4.50;;;8.20;99.90;;;;;;5097419;27;20454;-71
2022/09/25 01:39:06;;;;;;;13.35;5.07;;;;;;;;;;5086479;27;20418;-73
2022/09/25 01:41:37;;;;;;;9.55;4.57;;;;;;;;;;5114361;27;20395;-73
2022/09/25 01:44:06;;;;;;;11.05;4.53;;;;;;;;;;5094608;27;20765;-72
2022/09/25 01:46:38;;;;;;;11.07;4.40;;;;;;;;;;5107603;28;20420;-74
2022/09/25 01:49:11;;;;;;;11.02;4.85;;;;;;;;;;5095138;27;20420;-72
2022/09/25 01:51:45;;;;;;;10.93;5.03;;;8.20;99.90;;;;;;5097954;28;20420;-72
2022/09/25 01:54:16;;;;;;;11.38;4.30;;;8.30;99.90;;;;;;5073816;28;20418;-72
2022/09/25 01:56:47;;;;;;;11.07;4.47;;;;;;;;;;5073116;28;20464;-72
2022/09/25 01:59:23;;;;;;;10.20;5.10;;;;;;;;;;5108085;28;20506;-72
2022/09/25 02:01:50;;;;;;;10.73;4.80;;;;;;;;;;5075137;28;20495;-72
2022/09/25 02:04:21;;;;;;;8.75;4.38;;;;;;;;;;5093677;28;20424;-74
2022/09/25 02:06:48;;;;;;;14.27;5.80;;;;;;;;;;5092986;28;20424;-73
2022/09/25 02:09:21;;;;;;;12.30;5.68;;;;;;;;;;5107768;28;20430;-72
2022/09/25 02:11:54;;;;;;;9.93;4.93;;;;;;;;;;5113964;27;20399;-72
2022/09/25 02:14:31;;;;;;;10.90;4.93;;;8.30;99.90;;;;;;5111677;27;20414;-72
2022/09/25 02:17:00;;;;;;;11.35;5.43;;;;;;;;;;5111868;28;20904;-72
2022/09/25 02:22:18;;;;;;;11.05;5.32;;;;;;;;;;5109654;28;20494;-72
2022/09/25 02:24:46;;;;;;;13.07;5.32;;;;;;;;;;5096219;28;20407;-72
2022/09/25 02:27:13;;;;;;;12.32;5.20;;;;;;;;;;5085200;28;20485;-73
2022/09/25 02:29:39;;;;;;;14.93;5.22;;;;;;;;;;5111870;28;20418;-72
2022/09/25 02:32:10;;;;;;;11.07;4.72;;;8.30;99.90;;;;;;5093007;28;20457;-72
2022/09/25 02:34:37;;;;;;;14.90;5.20;;;;;;;;;;5096994;28;20760;-72
2022/09/25 02:37:05;;;;;;;11.40;5.13;;;;;;;;;;5092040;28;20418;-72
2022/09/25 02:39:32;;;;;;;12.32;5.50;;;;;;;;;;5067476;28;20421;-72
2022/09/25 02:42:13;;;;;;;12.50;5.15;;;8.20;99.90;;;;;;5073182;28;20429;-73
2022/09/25 02:44:45;;;;;;;14.93;5.43;;;;;;;;;;5072940;28;20463;-73
2022/09/25 02:47:31;;;;;;;13.25;5.20;;;;;;;;;;5106749;28;20908;-72
2022/09/25 02:50:07;;;;;;;12.70;5.40;;;;;;;;;;5105539;28;20415;-72
2022/09/25 02:52:36;;;;;;;11.13;5.30;;;;;;;;;;5113591;28;20416;-72
2022/09/25 02:55:11;;;;;;;12.18;4.97;;;8.20;99.90;;;;;;5113217;28;20415;-72
2022/09/25 02:57:52;;;;;;;11.52;5.40;;;;;;;;;;5090165;28;20410;-72
2022/09/25 03:00:21;;;;;;;9.90;5.13;;;;;;;;;;5065572;28;20425;-72
2022/09/25 03:02:52;;;;;;;10.57;5.20;;;8.00;99.90;;;;;;5095919;28;20404;-78
2022/09/25 03:05:19;;;;;;;13.52;5.40;;;8.00;99.90;;;;;;5097391;28;20407;-78
2022/09/25 03:10:32;;;;;;;15.05;5.20;;;7.70;99.90;;;;;;5107098;28;20427;-79
2022/09/25 03:13:12;;;;;;;12.23;4.90;;;;;;;;;;5098630;28;20400;-78
2022/09/25 03:15:38;;;;;;;11.32;5.07;;;;;;;;;;5097791;28;20432;-78
2022/09/25 03:18:04;;;;;;;13.43;5.45;;;;;;;;;;5097831;27;20426;-80
2022/09/25 03:20:30;;;;;;;14.90;5.50;;;;;;;;;;5117942;27;20458;-79
2022/09/25 03:22:56;;;;;;;13.88;5.53;;;;;;;;;;5113946;27;20493;-78
2022/09/25 03:25:22;;;;;;;17.08;5.72;;;;;;;;;;5101128;27;20394;-79
2022/09/25 03:27:49;;;;;;;15.80;6.10;;;;;;;;;;5098988;27;20406;-79
2022/09/25 03:30:15;;;;;;;13.77;5.70;;;;;;;;;;5095792;28;20416;-78
2022/09/25 03:32:41;;;;;;;12.32;6.32;;;;;;;;;;5096417;28;20416;-78
2022/09/25 03:35:07;;;;;;;17.52;5.95;;;;;;;;;;5098692;28;20451;-78
2022/09/25 03:37:33;;;;;;;12.48;5.10;;;;;;;;;;5110294;28;20429;-78
2022/09/25 03:40:00;;;;;;;12.85;5.57;;;;;;;;;;5061309;28;20417;-78
2022/09/25 03:42:27;;;;;;;14.75;5.57;;;;;;;;;;5097041;27;21049;-78
2022/09/25 03:44:53;;;;;;;14.87;6.10;;;;;;;;;;5108081;28;20432;-78
2022/09/25 03:47:19;;;;;;;11.68;5.97;;;;;;;;;;5086177;27;20414;-78
2022/09/25 03:49:45;;;;;;;16.23;6.00;;;;;;;;;;5128616;27;20449;-78
2022/09/25 03:52:12;;;;;;;14.27;5.90;;;;;;;;;;5095865;27;20442;-78
2022/09/25 03:54:38;;;;;;;16.23;5.90;;;;;;;;;;5118582;27;20394;-79
2022/09/25 03:57:04;;;;;;;13.32;5.53;;;;;;;;;;5126385;27;21422;-79
2022/09/25 03:59:30;;;;;;;11.37;5.33;;;;;;;;;;5088988;28;20408;-79
2022/09/25 04:01:57;;;;;;;15.20;6.00;;;;;;;;;;5093018;27;20514;-79
2022/09/25 04:04:23;;;;;;;12.80;5.57;;;;;;;;;;5118875;27;20482;-79
2022/09/25 04:06:49;;;;;;;17.00;6.00;;;;;;;;;;5101972;27;20426;-79
2022/09/25 04:09:15;;;;;;;13.18;5.90;;;;;;;;;;5109201;27;20427;-79
2022/09/25 04:11:42;;;;;;;10.98;5.68;;;;;;;;;;5108183;28;20931;-79
2022/09/25 04:14:09;;;;;;;13.60;5.70;;;;;;;;;;5078865;28;20502;-79
2022/09/25 04:16:35;;;;;;;14.02;5.53;;;;;;;;;;5113397;27;20418;-79
2022/09/25 04:19:01;;;;;;;14.97;5.60;;;;;;;;;;5097485;28;20510;-80
2022/09/25 04:21:27;;;;;;;11.88;5.20;;;;;;;;;;5096450;28;20399;-80
2022/09/25 04:24:53;;;;;;;14.50;5.80;;;;;;;;;;5075406;28;20510;-79
2022/09/25 04:26:52;;;;;;;15.10;5.87;;;;;;;;;;5055680;27;20482;-80
2022/09/25 04:29:18;;;;;;;11.68;6.13;;;;;;;;;;5110200;27;20783;-81
2022/09/25 04:33:44;;;;;;;13.02;5.47;;;;;;;;;;5100057;27;20394;-80
2022/09/25 04:34:31;;;;;;;15.27;5.32;;;;;;;;;;5116468;27;20390;-79
2022/09/25 04:36:57;;;;;;;16.35;6.00;;;;;;;;;;5115557;27;20419;-78
2022/09/25 04:39:23;;;;;;;13.13;5.10;;;;;;;;;;5082176;28;20421;-77
2022/09/25 04:41:49;;;;;;;13.35;5.82;;;;;;;;;;5093862;28;20656;-78
2022/09/25 04:44:15;;;;;;;13.60;5.78;;;;;;;;;;5094301;28;20452;-78
2022/09/25 04:46:41;;;;;;;10.07;5.50;;;;;;;;;;5078698;28;20763;-77
2022/09/25 04:49:07;;;;;;;14.88;5.85;;;;;;;;;;5096240;28;20824;-78
2022/09/25 04:51:33;;;;;;;13.35;5.22;;;;;;;;;;5101137;27;20454;-78
2022/09/25 04:53:59;;;;;;;13.52;5.35;;;;;;;;;;5086355;27;20832;-78
2022/09/25 04:56:25;;;;;;;11.45;5.22;;;;;;;;;;5121385;28;20421;-78
2022/09/25 04:58:51;;;;;;;11.88;5.15;;;;;;;;;;5110587;28;20959;-78
2022/09/25 05:01:19;;;;;;;15.05;5.43;;;7.80;99.90;;;;;;5124252;27;20901;-78
2022/09/25 05:03:49;;;;;;;11.40;4.93;;;;;;;;;;5117475;27;20413;-78
2022/09/25 05:06:15;;;;;;;9.75;5.10;;;;;;;;;;5099325;28;20429;-78
2022/09/25 05:08:41;;;;;;;11.60;4.85;;;;;;;;;;5062476;28;20600;-78
2022/09/25 05:11:07;;;;;;;10.27;5.00;;;;;;;;;;5083978;28;20422;-78
2022/09/25 05:13:33;;;;;;;12.77;5.10;;;;;;;;;;5094805;27;20426;-78
2022/09/25 05:15:59;;;;;;;11.80;5.03;;;;;;;;;;5107010;28;20428;-78
2022/09/25 05:18:28;;;;;;;10.75;4.78;;;;;;;;;;5085752;28;20980;-78
2022/09/25 05:20:54;;;;;;;12.60;4.90;;;;;;;;;;5074511;27;20496;-77
2022/09/25 05:23:22;;;;;;;11.52;5.20;;;;;;;;;;5096228;27;20444;-78
2022/09/25 05:25:56;;;;;;;11.80;5.30;;;;;;;;;;5114134;27;20504;-78
2022/09/25 05:28:23;;;;;;;11.70;4.90;;;;;;;;;;5108286;28;20515;-78
2022/09/25 05:30:50;;;;;;;9.63;4.72;;;;;;;;;;5105502;28;20432;-78
2022/09/25 05:33:17;;;;;;;13.27;5.07;;;;;;;;;;5083091;28;20425;-78
2022/09/25 05:35:44;;;;;;;10.65;4.95;;;;;;;;;;5097173;28;20422;-78
2022/09/25 05:38:11;;;;;;;12.80;4.50;;;;;;;;;;5096172;28;20426;-77
2022/09/25 05:40:38;;;;;;;13.10;5.07;;;;;;;;;;5089497;28;20418;-78
2022/09/25 05:43:04;;;;;;;13.75;5.18;;;;;;;;;;5100264;28;20914;-78
2022/09/25 05:45:32;;;;;;;13.23;5.20;;;;;;;;;;5107023;28;20543;-77
2022/09/25 05:48:02;;;;;;;12.55;5.10;;;8.40;99.90;;;;;;5102944;28;20785;-78
2022/09/25 05:50:28;;;;;;;12.45;5.40;;;;;;;;;;5072225;28;20594;-78
2022/09/25 05:52:55;;;;;;;12.57;5.20;;;;;;;;;;5070717;28;20439;-78
2022/09/25 05:55:21;;;;;;;11.80;4.90;;;;;;;;;;5084045;28;20419;-78
2022/09/25 05:57:47;;;;;;;10.43;4.70;;;;;;;;;;5111029;28;20897;-78
2022/09/25 06:00:14;;;;;;;9.57;4.70;;;;;;;;;;5108724;28;21006;-78
2022/09/25 06:02:40;;;;;;;15.13;5.25;;;;;;;;;;5096696;28;20740;-78
2022/09/25 06:05:07;;;;;;;13.85;4.82;;;;;;;;;;5068681;28;20420;-79
2022/09/25 06:07:34;;;;;;;9.98;4.85;;;;;;;;;;5088659;28;20443;-78
2022/09/25 06:10:00;;;;;;;13.45;4.95;;;;;;;;;;5109851;28;20419;-78
2022/09/25 06:12:28;;;;;;;12.63;4.72;;;;;;;;;;5108210;28;20427;-77
2022/09/25 06:14:54;;;;;;;9.57;4.35;;;;;;;;;;5104001;28;20416;-77
2022/09/25 06:17:21;;;;;;;10.30;4.25;;;;;;;;;;5081231;28;20426;-78
2022/09/25 06:19:47;;;;;;;10.30;4.10;;;;;;;;;;5082600;28;20551;-76
2022/09/25 06:22:14;;;;;;;10.93;4.53;;;;;;;;;;5087896;28;20410;-76
2022/09/25 06:24:40;;;;;;;13.32;4.40;;;;;;;;;;5103818;28;20413;-76
2022/09/25 06:27:06;;;;;;;10.48;4.40;;;9.30;99.90;;;;;;5093925;28;20405;-76
2022/09/25 06:29:33;;;;;;;9.13;4.03;;;;;;;;;;5108263;28;20408;-76
2022/09/25 06:31:59;;;;;;;10.18;4.00;;;;;;;;;;5082004;28;20517;-77
2022/09/25 06:34:26;;;;;;;15.10;4.57;;;;;;;;;;5107277;28;20882;-76
2022/09/25 06:36:52;;;;;;;9.68;4.03;;;;;;;;;;5110807;28;20915;-77
2022/09/25 06:39:19;;;;;;;10.33;4.13;;;;;;;;;;5096234;28;20423;-77
2022/09/25 06:41:45;;;;;;;9.27;3.58;;;;;;;;;;5058353;28;20795;-77
2022/09/25 06:44:11;;;;;;;10.00;3.58;;;;;;;;;;5059361;28;20872;-78
2022/09/25 06:46:37;;;;;;;13.40;4.20;;;;;;;;;;5110189;28;20404;-77
2022/09/25 06:49:03;;;;;;;7.75;3.17;;;;;;;;;;5093852;28;20447;-78
2022/09/25 06:51:33;;;;;;;7.65;3.30;;;10.10;99.90;;;;;;5092792;28;20950;-77
2022/09/25 06:53:59;;;;;;;8.80;3.35;;;;;;;;;;5086982;28;20772;-77
2022/09/25 06:56:25;;;;;;;12.23;3.60;;;;;;;;;;5094358;28;20459;-78
2022/09/25 06:58:51;;;;;;;10.38;3.20;;;;;;;;;;5095642;28;20423;-78
2022/09/25 07:01:17;;;;;;;6.63;3.20;;;;;;;;;;5106076;28;20418;-78
2022/09/25 07:03:44;;;;;;;8.02;2.90;;;;;;;;;;5106853;28;20416;-79
2022/09/25 07:06:14;;;;;;;9.82;3.08;;;11.10;99.90;;;;;;5096112;28;20424;-79
2022/09/25 07:08:41;;;;;;;7.82;3.25;;;;;;;;;;5097391;28;20416;-79
2022/09/25 07:11:07;;;;;;;10.27;2.67;;;;;;;;;;5114060;28;20437;-78
2022/09/25 07:13:40;;;;;;;7.53;2.97;;;;;;;;;;5105305;28;20419;-78
2022/09/25 07:16:10;;;;;;;9.50;2.85;;;11.70;99.90;;;;;;5085143;28;20427;-78
2022/09/25 07:18:37;;;;;;;8.88;2.70;;;;;;;;;;5074631;28;20403;-79
2022/09/25 07:21:13;;;;;;;7.40;2.47;;;;;;;;;;5100233;28;20483;-78
2022/09/25 07:23:41;;;;;;;6.40;2.50;;;;;;;;;;5093077;28;20412;-78
2022/09/25 07:26:07;;;;;;;8.18;2.70;;;;;;;;;;5102220;28;20501;-78
2022/09/25 07:28:33;;;;;;;9.70;2.42;;;;;;;;;;5111811;28;20540;-78
2022/09/25 07:30:59;;;;;;;7.03;2.40;;;;;;;;;;5056933;28;20481;-78
2022/09/25 07:33:25;;;;;;;7.18;2.53;;;;;;;;;;5059681;28;20451;-77
2022/09/25 07:35:51;;;;;;;7.10;2.28;;;;;;;;;;5057049;28;20489;-78
2022/09/25 07:38:18;;;;;;;6.50;2.35;;;;;;;;;;5065783;28;20426;-78
2022/09/25 07:40:44;;;;;;;6.77;2.33;;;;;;;;;;5056636;28;20434;-78
2022/09/25 07:43:10;;;;;;;6.85;2.30;;;;;;;;;;5056139;28;20450;-78
2022/09/25 07:45:37;;;;;;;8.88;1.90;;;;;;;;;;5064815;28;21048;-79
2022/09/25 07:48:05;;;;;;;7.05;1.67;;;;;;;;;;5061927;28;20426;-78
2022/09/25 07:50:31;;;;;;;7.10;1.88;;;13.10;99.90;;;;;;5077909;28;20476;-78
2022/09/25 07:52:57;;;;;;;5.63;1.70;;;;;;;;;;5062341;28;20814;-77
2022/09/25 07:55:24;;;;;;;10.27;1.70;;;;;;;;;;5059698;28;20783;-79
2022/09/25 07:57:50;;;;;;;6.57;1.60;;;;;;;;;;5052074;28;20419;-78
2022/09/25 08:00:17;;;;;;;6.87;1.60;;;13.50;99.90;;;;;;5076188;28;20413;-78
2022/09/25 08:02:43;;;;;;;10.57;2.08;;;;;;;;;;5066546;28;20852;-78
2022/09/25 08:05:10;;;;;;;8.57;1.50;;;13.90;99.90;;;;;;5059382;28;20399;-78
2022/09/25 08:07:36;;;;;;;6.30;1.57;;;;;;;;;;5056818;28;20404;-78
2022/09/25 08:10:03;;;;;;;8.18;1.80;;;;;;;;;;5040574;28;20431;-79
2022/09/25 08:12:29;;;;;;;7.40;1.67;;;;;;;;;;5067030;28;20423;-78
2022/09/25 08:14:54;;;;;;;5.70;1.55;;;14.20;99.90;;;;;;5046264;28;20455;-79
2022/09/25 08:17:21;;;;;;;8.53;1.70;;;;;;;;;;5064657;28;20458;-78
2022/09/25 08:19:47;;;;;;;6.53;1.63;;;;;;;;;;5059506;28;20452;-78
2022/09/25 08:22:15;;;;;;;5.05;1.45;;;14.80;99.90;;;;;;5074615;28;20411;-78
2022/09/25 08:24:41;;;;;;;7.53;1.52;;;;;;;;;;5041759;28;20420;-78
2022/09/25 08:27:08;;;;;;;8.30;1.65;;;;;;;;;;5058630;28;20429;-78
2022/09/25 08:29:35;;;;;;;8.27;1.65;;;14.30;99.90;;;;;;5073980;28;20695;-78
2022/09/25 08:32:01;;;;;;;9.07;1.80;;;;;;;;;;5072812;28;20888;-79
2022/09/25 08:34:27;;;;;;;9.10;1.90;;;;;;;;;;5090543;28;20420;-79
2022/09/25 08:36:53;;;;;;;5.35;1.60;;;;;;;;;;5088311;28;20477;-78
2022/09/25 08:39:19;;;;;;;5.35;1.48;;;;;;;;;;5081623;28;20467;-78
2022/09/25 08:41:46;;;;;;;6.18;1.58;;;;;;;;;;5084238;28;20830;-77
2022/09/25 08:44:31;;;;;;;9.10;1.50;;;;;;;;;;5092644;28;20469;-78
2022/09/25 08:50:10;;;;;;;5.05;1.60;;;;;;;;;;5091288;28;21051;-80
2022/09/25 08:52:38;;;;;;;8.75;1.90;;;13.50;99.90;;;;;;5082227;28;20440;-78
2022/09/25 08:55:09;;;;;;;8.93;1.90;;;;;;;;;;5091116;28;20481;-78
2022/09/25 08:57:39;;;;;;;6.53;1.90;;;;;;;;;;5079707;28;20422;-78
2022/09/25 09:00:08;;;;;;;5.78;1.60;;;;;;;;;;5074900;28;20409;-78
2022/09/25 09:02:34;;;;;;;8.68;2.00;;;;;;;;;;5093125;28;20780;-78
2022/09/25 09:05:01;;;;;;;6.55;1.67;;;13.90;99.90;;;;;;5092479;28;20506;-78
2022/09/25 09:07:41;;;;;;;8.30;2.13;;;13.70;99.90;;;;;;5072855;28;20423;-79
2022/09/25 09:10:07;;;;;;;5.68;1.90;;;;;;;;;;5073445;28;20387;-79
2022/09/25 09:12:42;;;;;;;9.68;2.17;;;;;;;;;;5082744;28;20469;-78
2022/09/25 09:15:20;;;;;;;6.30;1.90;;;13.90;99.90;;;;;;5104742;28;21066;-78
2022/09/25 09:17:46;;;;;;;6.35;2.20;;;;;;;;;;5092753;28;20418;-79
2022/09/25 09:20:15;;;;;;;6.82;1.90;;;;;;;;;;5078604;28;20434;-79
2022/09/25 09:22:44;;;;;;;5.38;1.70;;;;;;;;;;5074061;28;20418;-79
2022/09/25 09:25:29;;;;;;;7.55;1.80;;;;;;;;;;5088859;28;20471;-77
2022/09/25 09:28:22;;;;;;;7.20;1.50;;;15.00;99.90;;;;;;5079213;28;20528;-79
2022/09/25 09:30:57;;;;;;;6.28;1.52;;;15.20;99.90;;;;;;5108421;27;20819;-79
2022/09/25 09:33:34;;;;;;;6.30;1.50;;;15.60;99.90;;;;;;5110067;27;20436;-77
2022/09/25 09:36:19;;;;;;;5.67;1.37;;;;;;;;;;5093700;27;20501;-77
2022/09/25 09:38:51;;;;;;;4.60;1.23;;;;;;;;;;5086091;27;20421;-76
2022/09/25 09:41:27;;;;;;;8.60;1.40;;;16.30;99.90;;;;;;5090722;27;20485;-77
2022/09/25 09:44:04;;;;;;;4.80;1.30;;;16.30;99.90;;;;;;5083274;27;20410;-77
2022/09/25 09:46:30;;;;;;;4.32;1.13;;;;;;;;;;5063397;28;20433;-77
2022/09/25 09:49:02;;;;;;;4.55;1.23;;;;;;;;;;5089205;28;20514;-77
2022/09/25 09:51:47;;;;;;;4.00;1.27;;;;;;;;;;5080610;28;20574;-77
2022/09/25 09:54:13;;;;;;;6.80;1.50;;;;;;;;;;5068939;28;20416;-77
2022/09/25 09:56:42;;;;;;;3.15;1.00;;;16.50;99.90;;;;;;5088110;28;20491;-78
2022/09/25 09:59:14;;;;;;;3.67;1.05;;;;;;;;;;5090045;27;20507;-78
2022/09/25 10:01:43;;;;;;;6.15;1.48;;;15.90;99.90;;;;;;5084201;28;20418;-77
2022/09/25 10:04:23;;;;;;;3.40;1.20;;;15.60;99.90;;;;;;5080113;28;20416;-77
2022/09/25 10:07:09;;;;;;;5.32;1.02;;;;;;;;;;5086874;28;20421;-76
2022/09/25 10:09:36;;;;;;;2.83;1.10;;;;;;;;;;5079227;28;20469;-76
2022/09/25 10:12:06;;;;;;;4.03;1.10;;;;;;;;;;5076665;28;20448;-77
2022/09/25 10:14:37;;;;;;;2.80;1.00;;;15.20;99.90;;;;;;5069747;28;20414;-76
2022/09/25 10:17:04;;;;;;;4.05;0.88;;;;;;;;;;5087282;28;20425;-78
2022/09/25 10:19:34;;;;;;;1.90;0.77;;;;;;;;;;5092071;28;20409;-78
2022/09/25 10:22:04;;;;;;;2.30;0.90;;;;;;;;;;5097619;28;20435;-78
2022/09/25 10:24:50;;;;;;;2.43;1.10;;;;;;;;;;5076840;28;22199;-77
2022/09/25 10:27:28;;;;;;;3.50;0.77;;;15.80;99.90;;;;;;5077762;28;20431;-77
2022/09/25 10:30:02;;;;;;;2.22;0.70;;;;;;;;;;5069737;28;20416;-77
2022/09/25 10:32:29;;;;;;;3.35;1.05;;;;;;;;;;5097240;28;20414;-78
2022/09/25 10:34:55;;;;;;;3.45;1.08;;;16.30;99.90;;;;;;5102027;28;20424;-77
2022/09/25 10:37:21;;;;;;;4.75;1.23;;;16.40;99.90;;;;;;5094045;28;20416;-76
2022/09/25 10:40:03;;;;;;;4.17;1.30;;;;;;;;;;5085234;28;20422;-76
2022/09/25 10:42:32;;;;;;;5.27;1.37;;;;;;;;;;5091806;28;20446;-78
2022/09/25 10:44:57;;;;;;;4.60;1.30;;;15.90;99.90;;;;;;5072423;28;20422;-78
2022/09/25 10:50:14;;;;;;;5.65;1.20;;;;;;;;;;5103154;28;20473;-78
2022/09/25 10:52:49;;;;;;;5.90;1.55;;;16.00;99.90;;;;;;5114518;28;20416;-78
2022/09/25 10:55:29;;;;;;;3.92;1.50;;;;;;;;;;5099903;28;20415;-78
2022/09/25 10:58:09;;;;;;;3.83;0.98;;;15.90;99.90;;;;;;5077789;28;20433;-79
2022/09/25 11:00:51;;;;;;;3.17;1.00;;;;;;;;;;5100469;28;20502;-79
2022/09/25 11:03:35;;;;;;;3.97;0.95;;;;;;;;;;5093889;28;20499;-79
2022/09/25 11:06:07;;;;;;;4.70;0.90;;;;;;;;;;5072627;28;20420;-78
2022/09/25 11:08:36;;;;;;;3.15;0.85;;;;;;;;;;5089202;28;20416;-79
2022/09/25 11:11:03;;;;;;;5.18;1.10;;;16.30;99.90;;;;;;5096886;28;20443;-80
2022/09/25 11:13:35;;;;;;;3.47;1.00;;;16.50;99.90;;;;;;5060423;28;20500;-80
2022/09/25 11:16:02;;;;;;;3.20;0.93;;;;;;;;;;5091825;28;20420;-80
2022/09/25 11:18:35;;;;;;;2.45;0.80;;;;;;;;;;5093661;28;20412;-80
2022/09/25 11:21:02;;;;;;;3.25;0.85;;;16.80;99.90;;;;;;5077200;28;20834;-80
2022/09/25 11:23:42;;;;;;;3.30;0.80;;;;;;;;;;5072473;28;20483;-80
2022/09/25 11:26:16;;;;;;;2.72;0.80;;;16.40;99.90;;;;;;5094344;27;20429;-79
2022/09/25 11:28:49;;;;;;;2.20;0.70;;;16.30;99.90;;;;;;5088481;28;20414;-79
2022/09/25 11:31:24;;;;;;;2.28;0.80;;;;;;;;;;5082412;28;20808;-79
2022/09/25 11:34:35;;;;;;;2.22;0.73;;;16.60;99.90;;;;;;5096726;28;20524;-79
2022/09/25 11:37:30;;;;;;;1.65;0.70;;;16.70;99.90;;;;;;5084902;27;20932;-78
2022/09/25 11:43:03;;;;;;;1.60;0.70;;;16.80;99.90;;;;;;5096303;27;20455;-80
2022/09/25 11:46:07;;;;;;;2.95;0.82;;;16.80;99.90;;;;;;5087505;27;20491;-78
2022/09/25 11:48:45;;;;;;;3.22;0.80;;;16.90;99.90;;;;;;5041888;28;20584;-79
2022/09/25 11:51:27;;;;;;;4.75;0.80;;;17.10;99.90;;;;;;5087238;28;20499;-78
2022/09/25 11:54:12;;;;;;;4.43;1.02;;;17.00;99.90;;;;;;5076986;27;20502;-78
2022/09/25 11:57:12;;;;;;;2.70;0.75;;;17.20;99.90;;;;;;5106216;28;20420;-78
2022/09/25 12:00:13;;;;;;;2.17;0.70;;;17.50;99.90;;;;;;5071285;28;20416;-78
2022/09/25 12:03:02;;;;;;;2.97;0.70;;;17.80;99.90;;;;;;5088134;27;20415;-78
2022/09/25 12:05:52;;;;;;;1.75;0.70;;;18.00;99.90;;;;;;5094889;27;20426;-78
2022/09/25 12:08:43;;;;;;;2.83;0.80;;;17.90;99.90;;;;;;5100272;28;20904;-78
2022/09/25 12:11:27;;;;;;;2.42;0.80;;;17.70;99.90;;;;;;5110768;27;20486;-78
2022/09/25 12:13:53;;;;;;;2.30;0.70;;;18.10;99.90;;;;;;5086169;28;20498;-78
2022/09/25 12:16:40;;;;;;;2.63;0.60;;;18.30;99.90;;;;;;5095910;27;20509;-78
2022/09/25 12:19:25;;;;;;;2.38;0.80;;;18.40;99.90;;;;;;5099221;27;20477;-77
2022/09/25 12:22:09;;;;;;;3.03;0.70;;;18.60;99.90;;;;;;5073909;28;20422;-78
2022/09/25 12:25:00;;;;;;;2.10;0.70;;;18.50;99.90;;;;;;5092700;27;20501;-79
2022/09/25 12:27:41;;;;;;;2.25;0.75;;;19.10;99.90;;;;;;5088012;27;20427;-79
2022/09/25 12:30:15;;;;;;;2.43;0.80;;;19.10;99.90;;;;;;5111321;27;20418;-79
2022/09/25 12:33:02;;;;;;;1.98;0.70;;;19.00;99.90;;;;;;5085851;27;20779;-79
2022/09/25 12:35:59;;;;;;;3.00;0.90;;;19.10;99.90;;;;;;5072740;28;20825;-79
2022/09/25 12:38:40;;;;;;;3.10;1.00;;;18.40;99.90;;;;;;5096859;27;20826;-79
2022/09/25 12:41:19;;;;;;;1.95;0.70;;;18.30;99.90;;;;;;5090177;27;20411;-79
2022/09/25 12:44:08;;;;;;;2.80;0.98;;;17.70;99.90;;;;;;5126640;27;20804;-79
2022/09/25 12:46:53;;;;;;;4.15;1.10;;;17.60;99.90;;;;;;5097806;27;20419;-78
2022/09/25 12:49:31;;;;;;;4.32;0.98;;;17.60;99.90;;;;;;5090281;27;20422;-79
2022/09/25 12:52:04;;;;;;;2.95;1.00;;;17.30;99.90;;;;;;5104247;27;20463;-79
2022/09/25 12:55:03;;;;;;;4.10;0.95;;;17.40;99.90;;;;;;5090596;28;20432;-77
2022/09/25 12:57:30;;;;;;;3.53;1.03;;;;;;;;;;5110374;27;20498;-78
2022/09/25 13:00:18;;;;;;;3.38;1.08;;;;;;;;;;5109039;27;20411;-78
2022/09/25 13:03:02;;;;;;;3.70;1.00;;;17.40;99.90;;;;;;5108535;27;20792;-78
2022/09/25 13:05:33;;;;;;;5.10;1.20;;;;;;;;;;5076253;27;20790;-77
2022/09/25 13:08:09;;;;;;;4.60;1.10;;;;;;;;;;5092486;27;20435;-78
2022/09/25 13:10:53;;;;;;;2.58;0.90;;;17.00;99.90;;;;;;5077505;28;20438;-78
2022/09/25 13:13:23;;;;;;;3.33;1.15;;;;;;;;;;5083867;28;20410;-77
2022/09/25 13:15:51;;;;;;;3.53;0.90;;;;;;;;;;5100347;27;20415;-72
2022/09/25 13:18:20;;;;;;;3.22;0.90;;;16.50;99.90;;;;;;5088361;28;21315;-72
2022/09/25 13:20:47;;;;;;;5.15;1.00;;;;;;;;;;5094694;27;20489;-72
2022/09/25 13:23:26;;;;;;;7.78;1.20;;;;;;;;;;5089758;28;20915;-72
2022/09/25 13:25:59;;;;;;;4.70;0.90;;;;;;;;;;5090137;27;20522;-72
2022/09/25 13:28:28;;;;;;;4.00;0.90;;;;;;;;;;5094303;28;20743;-72
2022/09/25 13:31:00;;;;;;;5.28;0.98;;;16.90;99.90;;;;;;5092986;28;20859;-72
2022/09/25 13:33:27;;;;;;;2.95;1.00;;;16.70;99.90;;;;;;5073959;27;20431;-72
2022/09/25 13:36:07;;;;;;;5.00;1.10;;;;;;;;;;5091794;28;21069;-72
2022/09/25 13:41:24;;;;;;;5.55;1.30;;;16.60;99.90;;;;;;5101706;27;20422;-71
2022/09/25 13:44:10;;;;;;;6.18;1.10;;;;;;;;;;5112086;27;20637;-72
2022/09/25 13:46:36;;;;;;;3.60;1.00;;;;;;;;;;5110672;27;20422;-74
2022/09/25 13:49:34;;;;;;;6.20;1.70;;;17.10;99.90;;;;;;5114314;27;20399;-72
2022/09/25 13:52:00;;;;;;;3.30;1.00;;;;;;;;;;5101111;28;20429;-72
2022/09/25 13:54:27;;;;;;;6.25;1.00;;;;;;;;;;5100637;28;20515;-72
2022/09/25 13:56:54;;;;;;;3.58;0.90;;;;;;;;;;5076194;28;20427;-72
2022/09/25 13:59:38;;;;;;;4.33;1.10;;;17.40;99.90;;;;;;5091233;28;20505;-72
2022/09/25 14:02:23;;;;;;;4.65;0.95;;;;;;;;;;5102891;27;20411;-71
2022/09/25 14:04:49;;;;;;;4.63;0.90;;;17.00;99.90;;;;;;5095880;28;20444;-71
2022/09/25 14:07:18;;;;;;;4.60;0.80;;;;;;;;;;5059356;28;20770;-71
2022/09/25 14:09:48;;;;;;;4.32;0.80;;;17.00;99.90;;;;;;5077400;27;20422;-72
2022/09/25 14:12:18;;;;;;;3.27;1.00;;;;;;;;;;5110874;27;20426;-72
2022/09/25 14:14:54;;;;;;;3.10;0.88;;;17.00;99.90;;;;;;5107786;28;20418;-72
2022/09/25 14:17:21;;;;;;;3.80;1.10;;;;;;;;;;5112254;27;20505;-71
2022/09/25 14:19:51;;;;;;;3.53;0.80;;;16.70;99.90;;;;;;5071459;28;20422;-72
2022/09/25 14:22:26;;;;;;;3.83;0.70;;;16.70;99.90;;;;;;5088764;28;20419;-71
2022/09/25 14:24:52;;;;;;;3.20;0.90;;;;;;;;;;5101081;28;20433;-72
2022/09/25 14:27:25;;;;;;;2.97;0.85;;;16.90;99.90;;;;;;5094186;28;20476;-72
2022/09/25 14:29:51;;;;;;;5.55;1.00;;;17.20;99.90;;;;;;5071996;28;20476;-72
2022/09/25 14:32:29;;;;;;;2.60;0.90;;;;;;;;;;5057548;28;20523;-71
2022/09/25 14:34:55;;;;;;;4.05;0.98;;;;;;;;;;5053241;28;20415;-72
2022/09/25 14:37:50;;;;;;;4.20;0.90;;;17.30;99.90;;;;;;5070925;28;20421;-71
2022/09/25 14:40:16;;;;;;;5.53;0.90;;;;;;;;;;5088898;28;20944;-72
2022/09/25 14:42:45;;;;;;;3.80;1.08;;;;;;;;;;5084849;28;20810;-71
2022/09/25 14:45:23;;;;;;;2.45;0.90;;;;;;;;;;5071685;28;20413;-72